Time;durP1;ratioP1;P1;durP2;ratioP2;P2;SDS_P1;SDS_P2;PMS_P1;PMS_P2;Temp;Humidity;BMP_temperature;BMP_pressure;BME280_temperature;BME280_humidity;BME280_pressure;Samples;Min_cycle;Max_cycle;Signal;HPM_P1;HPM_P2
2023/04/05 00:02:23;;;;;;;49.00;22.70;;;;;;;0.57;82.35;101267.94;218150;1286;139389;-85
2023/04/05 00:07:25;;;;;;;56.10;24.70;;;;;;;0.59;82.76;101268.77;218653;1285;138823;-85
2023/04/05 00:12:25;;;;;;;52.70;22.40;;;;;;;0.60;82.70;101271.31;218122;1286;139029;-85
2023/04/05 00:17:26;;;;;;;53.50;23.10;;;;;;;0.62;82.32;101272.31;218641;1285;139556;-85
2023/04/05 00:22:30;;;;;;;43.50;20.70;;;;;;;0.66;82.67;101260.65;218222;1285;139569;-85
2023/04/05 00:27:31;;;;;;;31.40;14.00;;;;;;;0.69;81.97;101258.50;218600;1285;138888;-86
2023/04/05 00:32:31;;;;;;;35.10;15.10;;;;;;;0.73;81.38;101257.75;218170;1286;139130;-84
2023/04/05 00:37:32;;;;;;;39.00;15.80;;;;;;;0.77;81.01;101251.19;218649;1286;138879;-84
2023/04/05 00:42:32;;;;;;;34.10;13.80;;;;;;;0.80;81.25;101243.40;218154;1286;139406;-84
2023/04/05 00:47:33;;;;;;;32.50;12.80;;;;;;;0.83;81.24;101234.36;217671;1288;139251;-83
2023/04/05 00:52:36;;;;;;;32.50;12.40;;;;;;;0.86;81.61;101228.30;217116;1287;138985;-84
2023/04/05 00:57:38;;;;;;;39.60;12.90;;;;;;;0.87;81.51;101223.90;218497;1286;139558;-84
2023/04/05 01:02:48;;;;;;;28.40;10.50;;;;;;;0.89;81.57;101221.05;218032;1285;139178;-84
2023/04/05 01:08:17;;;;;;;25.50;10.30;;;;;;;0.89;81.76;101209.35;218444;1285;138923;-85
2023/04/05 01:13:17;;;;;;;24.80;9.80;;;;;;;0.86;81.06;101203.59;218038;1286;139025;-84
2023/04/05 01:18:17;;;;;;;24.30;11.20;;;;;;;0.79;81.03;101202.45;218744;1288;138678;-84
2023/04/05 01:23:31;;;;;;;31.70;12.60;;;;;;;0.72;81.16;101201.95;218162;1285;139848;-83
2023/04/05 01:29:06;;;;;;;29.30;12.50;;;;;;;0.64;81.97;101197.09;218706;1285;107814;-84
2023/04/05 01:34:19;;;;;;;30.50;12.70;;;;;;;0.55;82.25;101195.22;218360;1286;246412;-83
2023/04/05 01:39:20;;;;;;;32.30;13.40;;;;;;;0.50;82.41;101194.68;218054;1286;139955;-83
2023/04/05 01:44:20;;;;;;;27.80;12.10;;;;;;;0.44;82.83;101193.64;218743;1285;139289;-83
2023/04/05 01:49:22;;;;;;;26.30;10.30;;;;;;;0.36;83.01;101192.84;218180;1285;139158;-84
2023/04/05 01:54:22;;;;;;;25.70;10.90;;;;;;;0.24;83.29;101186.85;218636;1285;139807;-84
2023/04/05 01:59:23;;;;;;;22.60;10.30;;;;;;;0.13;83.57;101184.02;218042;1285;139982;-84
2023/04/05 02:04:23;;;;;;;21.50;8.90;;;;;;;0.03;83.69;101184.41;218615;1286;96654;-84
2023/04/05 02:09:24;;;;;;;23.40;10.50;;;;;;;-0.10;83.48;101183.98;217777;1286;138903;-84
2023/04/05 02:14:24;;;;;;;22.60;8.80;;;;;;;-0.22;84.14;101181.48;218546;1285;139925;-84
2023/04/05 02:19:25;;;;;;;31.70;10.90;;;;;;;-0.30;84.83;101173.16;218092;1285;139685;-83
2023/04/05 02:24:25;;;;;;;20.00;9.40;;;;;;;-0.38;84.94;101170.50;218520;1288;139251;-82
2023/04/05 02:29:25;;;;;;;21.60;9.00;;;;;;;-0.50;85.35;101166.19;216530;1285;139554;-83
2023/04/05 02:34:26;;;;;;;21.80;9.40;;;;;;;-0.62;85.45;101163.83;217644;1285;96882;-83
2023/04/05 02:39:27;;;;;;;28.90;11.20;;;;;;;-0.71;85.76;101164.23;217898;1285;139404;-82
2023/04/05 02:44:28;;;;;;;27.20;10.90;;;;;;;-0.78;86.05;101155.39;218507;1285;139049;-81
2023/04/05 02:49:28;;;;;;;28.80;12.70;;;;;;;-0.85;86.61;101149.50;218018;1285;141504;-83
2023/04/05 02:54:29;;;;;;;40.10;14.80;;;;;;;-0.93;86.43;101151.08;218556;1285;139327;-82
2023/04/05 02:59:29;;;;;;;59.20;21.70;;;;;;;-1.01;86.70;101139.54;218032;1285;139575;-82
2023/04/05 03:04:33;;;;;;;47.00;19.10;;;;;;;-1.07;86.97;101133.27;218660;1285;96553;-82
2023/04/05 03:09:33;;;;;;;28.70;13.10;;;;;;;-1.15;87.63;101140.30;217992;1285;139538;-82
2023/04/05 03:14:34;;;;;;;29.00;12.20;;;;;;;-1.25;87.36;101136.45;218527;1285;139137;-82
2023/04/05 03:19:34;;;;;;;25.40;12.40;;;;;;;-1.30;87.75;101131.66;218057;1285;139923;-82
2023/04/05 03:24:35;;;;;;;23.70;10.70;;;;;;;-1.35;87.89;101128.36;218550;1285;139238;-82
2023/04/05 03:29:35;;;;;;;23.50;10.90;;;;;;;-1.41;88.34;101130.13;218005;1285;140466;-82
2023/04/05 03:34:37;;;;;;;27.40;10.70;;;;;;;-1.45;88.29;101131.13;218637;1285;96645;-82
2023/04/05 03:39:37;;;;;;;33.90;14.00;;;;;;;-1.51;88.44;101137.05;217952;1285;139573;-81
2023/04/05 03:44:38;;;;;;;24.50;10.10;;;;;;;-1.55;88.51;101135.52;218572;1285;139179;-81
2023/04/05 03:49:38;;;;;;;23.50;10.80;;;;;;;-1.59;88.64;101130.05;218045;1288;139715;-81
2023/04/05 03:54:39;;;;;;;21.00;8.40;;;;;;;-1.60;88.70;101127.40;218514;1285;139191;-81
2023/04/05 03:59:40;;;;;;;24.70;10.70;;;;;;;-1.61;89.10;101122.34;218036;1285;139910;-81
2023/04/05 04:04:40;;;;;;;24.40;10.80;;;;;;;-1.62;89.42;101118.30;218629;1289;96382;-81
2023/04/05 04:09:40;;;;;;;31.90;11.50;;;;;;;-1.63;89.64;101113.39;216414;1286;139940;-81
2023/04/05 04:14:41;;;;;;;28.00;11.40;;;;;;;-1.69;89.75;101114.94;217310;1285;148915;-81
2023/04/05 04:19:42;;;;;;;23.40;11.10;;;;;;;-1.72;89.72;101112.16;217908;1285;139804;-81
2023/04/05 04:24:45;;;;;;;23.90;9.80;;;;;;;-1.75;89.86;101119.51;218525;1285;139469;-81
2023/04/05 04:29:48;;;;;;;22.90;10.00;;;;;;;-1.79;89.76;101117.38;217998;1285;139497;-82
2023/04/05 04:34:49;;;;;;;23.30;10.30;;;;;;;-1.84;90.07;101126.67;218605;1285;96856;-81
2023/04/05 04:39:51;;;;;;;48.70;17.30;;;;;;;-1.89;89.68;101133.89;217910;1285;139401;-81
2023/04/05 04:44:53;;;;;;;39.20;15.80;;;;;;;-1.93;90.29;101135.52;218493;1285;138967;-81
2023/04/05 04:49:53;;;;;;;27.40;12.30;;;;;;;-1.97;90.65;101137.11;217827;1285;139430;-81
2023/04/05 04:54:54;;;;;;;25.10;11.40;;;;;;;-1.99;90.44;101141.21;218469;1285;139260;-81
2023/04/05 04:59:54;;;;;;;30.80;11.30;;;;;;;-2.01;90.75;101143.98;217930;1285;139892;-81
2023/04/05 05:04:55;;;;;;;27.00;10.60;;;;;;;-2.01;91.16;101137.71;218628;1285;96613;-82
2023/04/05 05:09:55;;;;;;;27.50;10.50;;;;;;;-2.01;91.24;101138.05;218043;1285;140004;-79
2023/04/05 05:14:56;;;;;;;25.40;11.80;;;;;;;-2.02;91.74;101134.44;218533;1285;139478;-80
2023/04/05 05:19:59;;;;;;;28.40;11.00;;;;;;;-2.01;91.54;101134.64;217899;1285;139329;-80
2023/04/05 05:24:59;;;;;;;23.30;9.90;;;;;;;-1.96;92.36;101133.33;218444;1285;139661;-81
2023/04/05 05:30:00;;;;;;;29.10;10.30;;;;;;;-1.88;92.44;101129.55;217888;1285;139413;-81
2023/04/05 05:35:00;;;;;;;26.50;11.10;;;;;;;-1.79;93.08;101128.70;218542;1286;96469;-80
2023/04/05 05:40:02;;;;;;;27.20;10.50;;;;;;;-1.69;93.00;101127.94;217976;1285;139398;-80
2023/04/05 05:45:04;;;;;;;22.00;10.60;;;;;;;-1.59;93.94;101122.86;218489;1285;140704;-81
2023/04/05 05:50:06;;;;;;;30.50;12.70;;;;;;;-1.49;93.90;101131.33;216417;1285;141618;-81
2023/04/05 05:55:07;;;;;;;25.20;11.50;;;;;;;-1.39;94.38;101131.52;217405;1285;139801;-81
2023/04/05 06:00:09;;;;;;;25.20;10.50;;;;;;;-1.28;94.67;101131.23;217762;1285;140056;-81
2023/04/05 06:05:10;;;;;;;23.70;8.50;;;;;;;-1.12;95.08;101129.53;218392;1285;139636;-80
2023/04/05 06:10:12;;;;;;;21.70;8.80;;;;;;;-0.91;95.31;101132.69;217953;1288;139712;-81
2023/04/05 06:15:12;;;;;;;30.50;9.80;;;;;;;-0.68;95.97;101132.20;218416;1285;138959;-81
2023/04/05 06:20:12;;;;;;;21.10;8.20;;;;;;;-0.46;95.53;101131.59;217958;1285;139966;-81
2023/04/05 06:25:13;;;;;;;22.30;8.10;;;;;;;-0.27;95.57;101126.84;218369;1285;139171;-82
2023/04/05 06:30:14;;;;;;;18.70;8.60;;;;;;;-0.10;95.03;101127.92;217966;1285;139774;-83
2023/04/05 06:35:14;;;;;;;18.10;7.40;;;;;;;0.08;94.65;101129.20;218512;1285;139462;-82
2023/04/05 06:40:15;;;;;;;16.70;7.10;;;;;;;0.25;94.17;101129.41;218142;1285;139141;-82
2023/04/05 06:45:17;;;;;;;18.40;8.00;;;;;;;0.42;93.52;101131.65;218543;1285;138946;-82
2023/04/05 06:50:18;;;;;;;18.90;8.20;;;;;;;0.51;92.96;101128.42;217895;1285;139329;-82
2023/04/05 06:55:18;;;;;;;18.80;8.00;;;;;;;0.58;92.00;101128.88;218550;1285;138927;-82
2023/04/05 07:00:19;;;;;;;22.90;9.20;;;;;;;0.73;92.34;101129.88;217984;1286;139161;-81
2023/04/05 07:05:19;;;;;;;13.50;6.60;;;;;;;0.89;91.74;101130.06;218561;1285;140905;-82
2023/04/05 07:10:20;;;;;;;17.60;7.20;;;;;;;1.09;91.52;101128.70;218104;1286;140120;-82
2023/04/05 07:15:20;;;;;;;18.20;6.80;;;;;;;1.24;91.48;101128.91;218613;1284;139146;-82
2023/04/05 07:20:21;;;;;;;18.60;6.50;;;;;;;1.38;90.75;101130.45;217872;1284;139917;-84
2023/04/05 07:25:21;;;;;;;18.40;7.50;;;;;;;1.54;90.29;101127.32;218645;1286;139211;-85
2023/04/05 07:30:22;;;;;;;19.20;7.70;;;;;;;1.72;89.74;101131.15;216533;1285;140090;-83
2023/04/05 07:35:22;;;;;;;15.50;7.50;;;;;;;1.90;89.09;101124.66;216502;1285;139591;-84
2023/04/05 07:40:22;;;;;;;19.90;8.60;;;;;;;2.03;88.71;101121.29;217743;1285;139308;-84
2023/04/05 07:45:23;;;;;;;19.80;7.60;;;;;;;2.18;87.38;101116.84;218218;1288;139278;-84
2023/04/05 07:50:25;;;;;;;14.90;5.80;;;;;;;2.30;86.29;101117.39;217915;1285;139755;-85
2023/04/05 07:55:26;;;;;;;18.40;7.60;;;;;;;2.41;86.12;101117.22;218392;1285;139865;-84
2023/04/05 08:00:26;;;;;;;20.60;8.60;;;;;;;2.60;86.27;101118.88;217873;1285;139372;-85
2023/04/05 08:05:27;;;;;;;22.00;8.70;;;;;;;2.77;84.37;101122.69;218477;1285;139180;-86
2023/04/05 08:10:27;;;;;;;19.70;7.90;;;;;;;2.98;84.03;101126.11;218145;1285;139768;-85
2023/04/05 08:15:27;;;;;;;17.00;8.10;;;;;;;3.18;81.99;101120.17;218658;1285;138682;-86
2023/04/05 08:20:28;;;;;;;16.40;7.30;;;;;;;3.40;81.15;101128.68;218124;1285;139794;-85
2023/04/05 08:25:28;;;;;;;18.60;7.30;;;;;;;3.73;82.49;101126.13;218531;1285;139424;-85
2023/04/05 08:30:28;;;;;;;18.80;7.50;;;;;;;4.22;82.16;101125.48;218050;1285;139661;-86
2023/04/05 08:35:29;;;;;;;22.40;8.00;;;;;;;4.61;80.36;101121.73;218504;1285;138916;-86
2023/04/05 08:40:43;;;;;;;17.10;7.40;;;;;;;4.92;78.28;101121.95;218133;1285;138781;-86
2023/04/05 08:45:51;;;;;;;24.00;9.70;;;;;;;5.17;77.43;101124.20;218440;1285;138595;-84
2023/04/05 08:50:52;;;;;;;20.10;7.90;;;;;;;5.61;76.12;101116.48;218099;1285;139403;-84
2023/04/05 08:55:55;;;;;;;18.40;8.10;;;;;;;6.21;75.61;101119.56;218644;1285;138855;-85
2023/04/05 09:00:58;;;;;;;17.90;8.50;;;;;;;6.86;72.40;101121.55;218007;1285;140489;-85
2023/04/05 09:05:59;;;;;;;20.60;9.70;;;;;;;7.36;71.74;101121.45;218511;1285;139628;-85
2023/04/05 09:10:59;;;;;;;23.00;9.10;;;;;;;7.60;70.07;101125.66;217686;1285;138844;-85
2023/04/05 09:16:01;;;;;;;23.90;11.30;;;;;;;7.89;68.00;101125.17;215519;1285;139122;-86
2023/04/05 09:21:03;;;;;;;18.80;9.50;;;;;;;7.88;66.50;101127.33;217668;1285;139188;-86
2023/04/05 09:26:21;;;;;;;17.40;9.50;;;;;;;7.99;66.74;101130.82;218435;1285;138794;-87
2023/04/05 09:31:33;;;;;;;22.70;9.50;;;;;;;8.24;65.69;101133.70;217817;1285;139631;-87
2023/04/05 09:36:35;;;;;;;19.90;9.50;;;;;;;8.09;65.47;101134.81;218531;1285;139001;-86
2023/04/05 09:41:35;;;;;;;18.30;8.20;;;;;;;8.03;64.85;101131.23;217961;1285;138722;-87
2023/04/05 09:46:36;;;;;;;16.80;8.20;;;;;;;7.98;64.08;101128.44;218620;1285;96910;-85
2023/04/05 09:51:38;;;;;;;17.10;7.60;;;;;;;7.89;63.55;101125.94;217982;1285;138357;-85
2023/04/05 09:56:40;;;;;;;16.40;7.90;;;;;;;7.79;62.76;101126.09;218551;1285;139617;-86
2023/04/05 10:01:44;;;;;;;13.20;6.90;;;;;;;7.78;63.22;101127.77;217978;1285;138550;-86
2023/04/05 10:06:45;;;;;;;12.90;5.30;;;;;;;8.08;64.68;101124.92;218597;1286;138332;-88
2023/04/05 10:11:45;;;;;;;16.90;6.50;;;;;;;8.81;66.34;101122.63;217997;1285;138442;-86
2023/04/05 10:17:02;;;;;;;15.50;6.40;;;;;;;9.63;64.22;101119.26;218645;1285;104342;-88
2023/04/05 10:22:11;;;;;;;13.00;5.20;;;;;;;10.61;65.02;101119.61;218051;1285;138250;-86
2023/04/05 10:27:14;;;;;;;12.80;5.20;;;;;;;11.63;62.02;101111.45;218503;1285;139690;-86
2023/04/05 10:32:55;;;;;;;11.80;5.80;;;;;;;12.12;59.57;101113.06;218023;1285;138840;-86
2023/04/05 10:38:16;;;;;;;12.40;5.70;;;;;;;12.67;59.92;101109.30;218301;1285;138424;-86
2023/04/05 10:43:20;;;;;;;13.70;6.10;;;;;;;13.10;53.71;101109.62;217974;1288;138939;-85
2023/04/05 10:48:53;;;;;;;13.50;5.70;;;;;;;12.07;51.32;101111.31;218545;1285;138351;-85
2023/04/05 10:53:55;;;;;;;10.60;5.40;;;;;;;11.78;52.68;101108.10;218027;1285;138735;-86
2023/04/05 10:58:57;;;;;;;13.90;5.80;;;;;;;11.77;52.20;101104.38;215018;1287;138807;-86
2023/04/05 11:04:11;;;;;;;12.30;5.70;;;;;;;11.42;50.44;101103.09;217747;1285;138115;-85
2023/04/05 11:09:19;;;;;;;11.00;5.50;;;;;;;11.17;50.49;101102.69;217851;1286;138646;-84
2023/04/05 11:14:21;;;;;;;12.80;5.40;;;;;;;10.63;49.33;101102.67;218543;1285;139161;-84
2023/04/05 11:19:46;;;;;;;12.60;5.80;;;;;;;10.28;48.43;101101.27;218074;1285;140457;-85
2023/04/05 11:24:56;;;;;;;11.80;5.30;;;;;;;10.53;49.91;101096.57;218509;1285;138881;-84
2023/04/05 11:29:59;;;;;;;11.10;5.30;;;;;;;10.59;47.43;101094.95;217766;1288;139343;-84
2023/04/05 11:35:04;;;;;;;13.80;6.40;;;;;;;10.48;47.85;101094.88;218408;1286;97927;-86
2023/04/05 11:40:32;;;;;;;13.10;6.70;;;;;;;10.62;49.21;101100.63;218050;1285;138718;-87
2023/04/05 11:45:35;;;;;;;10.60;5.00;;;;;;;10.56;48.00;101098.02;218593;1285;138375;-85
2023/04/05 11:50:37;;;;;;;10.40;5.40;;;;;;;10.38;48.74;101098.49;217956;1285;139063;-86
2023/04/05 11:55:42;;;;;;;10.90;4.70;;;;;;;10.42;50.08;101098.27;218502;1285;138493;-85
2023/04/05 12:00:44;;;;;;;12.70;5.40;;;;;;;10.58;50.55;101094.33;218034;1285;139631;-84
2023/04/05 12:05:45;;;;;;;14.20;5.30;;;;;;;10.57;48.26;101097.42;218562;1286;138694;-85
2023/04/05 12:10:56;;;;;;;15.50;6.50;;;;;;;10.39;48.02;101096.40;218105;1285;138994;-86
2023/04/05 12:16:04;;;;;;;11.50;4.70;;;;;;;10.29;48.25;101091.85;218576;1288;138251;-87
2023/04/05 12:21:07;;;;;;;10.80;4.40;;;;;;;10.21;49.72;101092.15;218004;1285;138672;-86
2023/04/05 12:26:08;;;;;;;17.70;8.10;;;;;;;10.16;48.82;101091.39;218573;1285;138376;-87
2023/04/05 12:31:09;;;;;;;14.60;6.00;;;;;;;9.85;48.61;101089.52;217938;1285;139768;-86
2023/04/05 12:36:14;;;;;;;11.60;5.10;;;;;;;9.60;47.70;101081.35;218358;1285;138155;-86
2023/04/05 12:41:14;;;;;;;12.40;4.70;;;;;;;9.51;50.17;101077.60;215346;1285;138291;-85
2023/04/05 12:46:16;;;;;;;9.30;4.90;;;;;;;9.75;49.05;101069.80;217262;1285;97731;-84
2023/04/05 12:51:16;;;;;;;13.40;4.60;;;;;;;9.64;48.21;101069.60;217579;1285;138937;-85
2023/04/05 12:56:17;;;;;;;14.00;4.30;;;;;;;9.59;47.78;101070.35;218407;1286;138237;-86
2023/04/05 13:01:18;;;;;;;10.90;4.60;;;;;;;9.47;47.63;101069.31;217974;1286;138980;-85
2023/04/05 13:06:18;;;;;;;9.30;4.10;;;;;;;9.38;47.23;101068.54;218412;1285;138233;-87
2023/04/05 13:11:18;;;;;;;9.00;4.30;;;;;;;9.24;46.86;101068.48;217738;1285;139976;-86
2023/04/05 13:16:19;;;;;;;8.60;4.20;;;;;;;9.25;47.94;101072.35;217588;1288;97806;-87
2023/04/05 13:21:23;;;;;;;10.30;3.60;;;;;;;9.26;48.30;101068.62;217473;1285;137818;-87
2023/04/05 13:26:23;;;;;;;8.00;3.30;;;;;;;9.29;48.12;101064.77;217911;1285;139366;-87
2023/04/05 13:31:23;;;;;;;11.50;4.50;;;;;;;9.22;48.08;101061.69;217676;1285;139004;-87
2023/04/05 13:36:24;;;;;;;11.00;4.40;;;;;;;9.25;45.80;101057.92;218320;1285;138466;-84
2023/04/05 13:41:25;;;;;;;9.00;4.10;;;;;;;9.04;45.22;101054.45;217775;1285;138469;-86
2023/04/05 13:46:25;;;;;;;11.20;4.40;;;;;;;8.95;46.55;101055.77;218536;1285;97827;-83
2023/04/05 13:51:30;;;;;;;10.90;4.30;;;;;;;9.01;46.99;101060.25;218033;1285;138873;-84
2023/04/05 13:56:30;;;;;;;8.70;4.10;;;;;;;8.98;47.65;101060.48;218462;1286;137793;-84
2023/04/05 14:01:32;;;;;;;8.00;3.30;;;;;;;9.10;49.20;101059.63;218141;1285;139845;-85
2023/04/05 14:06:33;;;;;;;11.10;4.40;;;;;;;9.23;50.05;101060.52;218571;1286;137866;-84
2023/04/05 14:11:34;;;;;;;10.40;3.70;;;;;;;9.30;49.15;101055.84;217856;1286;138348;-85
2023/04/05 14:16:36;;;;;;;10.30;3.60;;;;;;;9.15;47.82;101058.05;218683;1285;96585;-84
2023/04/05 14:21:37;;;;;;;10.30;5.10;;;;;;;9.09;48.97;101047.45;218004;1286;138446;-85
2023/04/05 14:26:38;;;;;;;7.90;3.10;;;;;;;9.04;48.65;101054.61;216244;1286;138801;-86
2023/04/05 14:31:38;;;;;;;8.40;3.50;;;;;;;8.99;48.54;101057.86;217395;1285;138479;-86
2023/04/05 14:36:39;;;;;;;7.70;3.60;;;;;;;8.87;46.81;101059.23;218398;1286;137999;-86
2023/04/05 14:41:40;;;;;;;10.30;3.50;;;;;;;8.80;47.81;101052.44;217966;1285;138297;-84
2023/04/05 14:46:41;;;;;;;15.70;9.50;;;;;;;8.81;48.09;101053.96;218740;1285;96543;-85
2023/04/05 14:51:41;;;;;;;10.50;3.40;;;;;;;8.66;46.45;101054.41;218093;1285;139096;-84
2023/04/05 14:56:41;;;;;;;10.50;4.20;;;;;;;8.38;45.68;101061.63;218503;1285;137902;-84
2023/04/05 15:01:44;;;;;;;12.00;3.60;;;;;;;8.33;47.61;101055.06;218066;1285;138535;-85
2023/04/05 15:06:44;;;;;;;9.60;3.60;;;;;;;8.46;48.28;101052.95;218554;1285;138050;-85
2023/04/05 15:11:45;;;;;;;8.40;3.20;;;;;;;8.34;46.46;101055.90;218041;1284;138129;-86
2023/04/05 15:16:45;;;;;;;11.50;3.80;;;;;;;8.19;47.88;101053.94;218576;1286;96729;-86
2023/04/05 15:21:46;;;;;;;9.10;3.80;;;;;;;8.18;48.94;101058.58;218029;1288;138492;-85
2023/04/05 15:26:46;;;;;;;8.30;3.30;;;;;;;8.20;49.67;101062.66;218431;1286;137670;-84
2023/04/05 15:31:47;;;;;;;7.20;2.90;;;;;;;8.07;46.89;101055.26;217998;1288;138488;-85
2023/04/05 15:36:47;;;;;;;7.70;2.90;;;;;;;7.92;46.79;101055.33;218554;1284;137969;-85
2023/04/05 15:41:48;;;;;;;7.50;3.20;;;;;;;7.75;46.83;101057.20;218119;1285;138227;-84
2023/04/05 15:46:48;;;;;;;10.60;4.20;;;;;;;7.71;49.07;101062.88;218538;1285;96571;-85
2023/04/05 15:51:49;;;;;;;9.00;3.50;;;;;;;7.70;49.06;101062.91;217762;1285;139170;-86
2023/04/05 15:56:49;;;;;;;13.00;3.40;;;;;;;7.62;47.92;101063.38;218670;1285;138255;-85
2023/04/05 16:01:50;;;;;;;10.20;3.30;;;;;;;7.54;49.02;101063.67;217711;1285;138033;-84
2023/04/05 16:06:50;;;;;;;11.60;3.20;;;;;;;7.54;49.34;101063.40;217394;1285;138204;-86
2023/04/05 16:11:51;;;;;;;8.40;2.90;;;;;;;7.52;49.22;101066.08;214982;1286;306750;-85
2023/04/05 16:16:51;;;;;;;10.50;3.40;;;;;;;7.37;49.51;101067.93;218360;1286;96966;-86
2023/04/05 16:21:52;;;;;;;9.50;3.00;;;;;;;7.23;49.70;101070.80;217938;1285;138276;-84
2023/04/05 16:26:52;;;;;;;6.70;2.80;;;;;;;7.15;50.81;101077.71;218521;1285;137605;-85
2023/04/05 16:31:53;;;;;;;8.80;3.00;;;;;;;7.02;50.57;101077.02;218051;1285;139303;-86
2023/04/05 16:36:53;;;;;;;8.60;3.00;;;;;;;6.93;50.93;101072.39;218449;1285;137849;-86
2023/04/05 16:41:54;;;;;;;8.60;2.90;;;;;;;6.76;49.12;101072.40;218011;1285;138831;-85
2023/04/05 16:46:55;;;;;;;8.20;3.30;;;;;;;6.71;51.25;101072.13;218299;1285;97240;-86
2023/04/05 16:51:55;;;;;;;8.20;3.20;;;;;;;6.65;51.40;101074.95;217526;1285;138208;-87
2023/04/05 16:56:56;;;;;;;13.90;4.70;;;;;;;6.45;49.87;101079.23;218356;1286;138034;-86
2023/04/05 17:01:57;;;;;;;12.50;4.60;;;;;;;6.27;49.42;101084.54;217800;1285;138846;-86
2023/04/05 17:06:57;;;;;;;28.60;14.70;;;;;;;6.18;51.66;101084.89;218566;1285;139121;-85
2023/04/05 17:12:07;;;;;;;17.60;7.90;;;;;;;6.12;51.69;101087.38;217593;1286;138262;-86
2023/04/05 17:17:07;;;;;;;22.20;8.60;;;;;;;5.97;50.84;101094.02;218226;1285;138864;-82
2023/04/05 17:22:08;;;;;;;14.60;5.90;;;;;;;5.74;51.78;101092.48;217800;1286;138620;-85
2023/04/05 17:27:08;;;;;;;22.90;9.50;;;;;;;5.53;50.86;101098.23;218298;1285;138225;-85
2023/04/05 17:32:08;;;;;;;26.00;9.90;;;;;;;5.38;51.75;101101.45;217842;1285;138119;-84
2023/04/05 17:37:09;;;;;;;24.60;9.50;;;;;;;5.21;52.63;101111.35;218426;1288;138056;-84
2023/04/05 17:42:09;;;;;;;28.20;12.80;;;;;;;5.03;52.74;101113.73;217865;1286;139145;-84
2023/04/05 17:47:10;;;;;;;40.60;16.70;;;;;;;4.85;53.32;101115.59;218338;1285;139534;-86
2023/04/05 17:52:11;;;;;;;58.90;25.50;;;;;;;4.69;53.96;101126.65;215551;1287;139868;-85
2023/04/05 17:57:14;;;;;;;66.00;32.00;;;;;;;4.51;54.33;101127.45;214924;1289;138139;-85
2023/04/05 18:02:14;;;;;;;50.90;17.10;;;;;;;4.31;55.70;101137.33;214572;1289;138649;-84
2023/04/05 18:07:15;;;;;;;56.90;20.30;;;;;;;4.10;56.25;101141.52;214917;1292;138303;-85
2023/04/05 18:12:15;;;;;;;91.40;25.00;;;;;;;3.89;56.98;101144.52;214474;1289;139010;-84
2023/04/05 18:17:16;;;;;;;50.30;16.30;;;;;;;3.68;57.53;101148.70;214922;1291;138197;-84
2023/04/05 18:22:17;;;;;;;47.50;17.60;;;;;;;3.50;57.60;101154.34;214345;1289;139427;-86
2023/04/05 18:27:17;;;;;;;22.80;11.40;;;;;;;3.36;57.01;101155.54;214787;1289;139758;-86
2023/04/05 18:32:18;;;;;;;20.20;10.00;;;;;;;3.24;57.29;101163.52;214402;1289;138592;-86
2023/04/05 18:37:18;;;;;;;58.10;21.50;;;;;;;3.09;57.95;101170.54;214904;1289;138835;-85
2023/04/05 18:42:18;;;;;;;29.30;11.50;;;;;;;2.95;58.45;101173.67;214382;1286;139338;-85
2023/04/05 18:47:20;;;;;;;53.50;16.70;;;;;;;2.81;58.99;101177.45;215067;1289;138334;-85
2023/04/05 18:52:26;;;;;;;60.50;20.50;;;;;;;2.66;59.22;101186.89;214613;1289;138687;-85
2023/04/05 18:57:26;;;;;;;157.70;47.10;;;;;;;2.49;60.08;101191.21;214966;1287;138849;-86
2023/04/05 19:02:27;;;;;;;56.80;17.10;;;;;;;2.36;59.54;101199.88;214819;1289;139029;-84
2023/04/05 19:07:27;;;;;;;30.00;10.00;;;;;;;2.29;60.44;101200.02;215260;1288;138707;-85
2023/04/05 19:12:27;;;;;;;25.50;8.90;;;;;;;2.25;60.83;101203.91;214579;1291;139498;-85
2023/04/05 19:17:28;;;;;;;29.80;10.00;;;;;;;2.20;61.68;101204.13;215029;1289;138305;-84
2023/04/05 19:22:28;;;;;;;25.00;10.40;;;;;;;2.15;61.95;101207.88;214660;1286;139415;-84
2023/04/05 19:27:31;;;;;;;27.70;10.00;;;;;;;2.09;62.23;101210.66;215063;1290;138321;-85
2023/04/05 19:32:32;;;;;;;21.10;9.10;;;;;;;2.01;62.99;101212.81;214498;1289;139110;-86
2023/04/05 19:37:33;;;;;;;27.60;10.30;;;;;;;1.96;63.61;101217.80;215077;1289;139036;-85
2023/04/05 19:42:34;;;;;;;31.30;11.60;;;;;;;1.90;63.91;101223.39;214564;1286;139973;-85
2023/04/05 19:47:34;;;;;;;32.80;13.60;;;;;;;1.82;64.48;101222.26;215128;1285;138436;-85
2023/04/05 19:52:46;;;;;;;31.90;12.40;;;;;;;1.75;64.72;101223.30;214813;1285;138524;-86
2023/04/05 19:57:46;;;;;;;31.10;13.00;;;;;;;1.68;65.09;101219.14;214909;1289;138303;-86
2023/04/05 20:02:47;;;;;;;23.30;11.30;;;;;;;1.63;65.30;101215.70;214627;1285;139061;-85
2023/04/05 20:07:47;;;;;;;17.20;6.30;;;;;;;1.57;65.79;101209.90;215135;1286;139818;-85
2023/04/05 20:12:48;;;;;;;12.10;4.70;;;;;;;1.53;65.92;101205.38;214595;1285;139182;-84
2023/04/05 20:17:49;;;;;;;16.30;6.00;;;;;;;1.52;66.15;101201.05;215029;1285;138790;-85
2023/04/05 20:22:49;;;;;;;15.50;5.60;;;;;;;1.53;66.46;101198.37;214833;1288;138423;-85
2023/04/05 20:27:56;;;;;;;17.20;6.20;;;;;;;1.50;66.73;101201.08;214999;1289;138553;-85
2023/04/05 20:32:58;;;;;;;18.10;8.10;;;;;;;1.45;67.19;101200.02;214486;1289;138665;-84
2023/04/05 20:37:59;;;;;;;19.50;7.60;;;;;;;1.39;67.37;101197.48;214954;1286;138052;-84
2023/04/05 20:42:59;;;;;;;16.40;6.20;;;;;;;1.34;67.60;101195.23;214465;1286;138900;-85
2023/04/05 20:48:01;;;;;;;15.90;6.50;;;;;;;1.29;67.79;101194.17;215527;1286;138199;-87
2023/04/05 20:53:04;;;;;;;16.90;6.80;;;;;;;1.26;68.09;101188.91;215168;1289;138097;-85
2023/04/05 20:58:05;;;;;;;19.70;6.80;;;;;;;1.23;68.14;101191.72;215784;1289;137901;-84
2023/04/05 21:03:05;;;;;;;21.50;9.00;;;;;;;1.19;67.93;101188.59;215240;1285;138669;-86
2023/04/05 21:08:06;;;;;;;19.50;8.50;;;;;;;1.17;68.20;101184.73;215117;1285;138194;-86
2023/04/05 21:13:07;;;;;;;17.20;7.40;;;;;;;1.12;68.49;101181.27;214291;1286;138499;-85
2023/04/05 21:18:09;;;;;;;17.20;7.20;;;;;;;1.07;68.42;101182.61;214927;1288;138182;-85
2023/04/05 21:23:09;;;;;;;17.00;6.40;;;;;;;1.01;68.36;101178.86;214423;1285;138309;-85
2023/04/05 21:28:09;;;;;;;17.60;7.10;;;;;;;0.95;68.48;101172.98;215499;1286;98033;-85
2023/04/05 21:33:11;;;;;;;27.60;10.40;;;;;;;0.90;68.53;101176.86;214240;1289;138223;-84
2023/04/05 21:38:11;;;;;;;29.20;11.50;;;;;;;0.85;69.21;101172.94;214888;1286;139208;-85
2023/04/05 21:43:12;;;;;;;27.60;10.30;;;;;;;0.79;69.45;101176.11;214240;1285;139431;-85
2023/04/05 21:48:12;;;;;;;23.80;11.10;;;;;;;0.73;69.91;101176.70;214739;1288;138539;-85
2023/04/05 21:53:13;;;;;;;25.80;10.70;;;;;;;0.64;70.02;101172.97;214446;1285;138954;-84
2023/04/05 21:58:13;;;;;;;23.60;10.10;;;;;;;0.54;70.85;101170.20;214981;1286;99329;-85
2023/04/05 22:03:14;;;;;;;26.70;10.90;;;;;;;0.47;71.44;101169.11;214333;1285;138348;-85
2023/04/05 22:08:15;;;;;;;25.50;10.30;;;;;;;0.40;71.61;101169.10;214819;1287;139357;-84
2023/04/05 22:13:30;;;;;;;29.30;11.20;;;;;;;0.33;72.31;101166.16;214354;1289;138392;-85
2023/04/05 22:18:31;;;;;;;26.40;11.50;;;;;;;0.27;72.69;101173.08;214776;1288;138833;-85
2023/04/05 22:23:31;;;;;;;26.90;10.10;;;;;;;0.20;72.93;101177.06;214343;1285;139097;-84
2023/04/05 22:28:32;;;;;;;29.30;11.80;;;;;;;0.13;73.21;101171.09;215002;1285;97976;-83
2023/04/05 22:33:33;;;;;;;36.20;13.60;;;;;;;0.06;73.82;101169.01;214153;1289;139533;-84
2023/04/05 22:38:33;;;;;;;31.10;13.30;;;;;;;0.01;74.05;101175.35;214874;1285;138756;-83
2023/04/05 22:43:33;;;;;;;27.60;12.30;;;;;;;-0.04;74.62;101176.80;214462;1289;139116;-83